Time;durP1;ratioP1;P1;durP2;ratioP2;P2;SDS_P1;SDS_P2;PMS_P1;PMS_P2;Temp;Humidity;BMP_temperature;BMP_pressure;BME280_temperature;BME280_humidity;BME280_pressure;Samples;Min_cycle;Max_cycle;Signal;HPM_P1;HPM_P2
2023/03/05 00:01:13;;;;;;;;;;;;;;;;;;6085617;23;19922;-82
2023/03/05 00:03:38;;;;;;;;;;;;;;;;;;6104102;23;19909;-82
2023/03/05 00:06:04;;;;;;;;;;;;;;;;;;6080251;23;19954;-82
2023/03/05 00:08:29;;;;;;;;;;;;;;;;;;6104568;23;19914;-82
2023/03/05 00:10:55;;;;;;;;;;;;;;;;;;6082025;23;19925;-82
2023/03/05 00:13:20;;;;;;;;;;;;;;;;;;6060615;23;20297;-81
2023/03/05 00:15:46;;;;;;;;;;;;;;;;;;6083990;23;19909;-82
2023/03/05 00:18:11;;;;;;;;;;;;;;;;;;6081697;23;19916;-82
2023/03/05 00:20:37;;;;;;;;;;;;;;;;;;6052967;23;20117;-82
2023/03/05 00:23:02;;;;;;;;;;;;;;;;;;6057292;23;19933;-82
2023/03/05 00:25:27;;;;;;;;;;;;;;;;;;6086527;23;19901;-82
2023/03/05 00:27:53;;;;;;;;;;;;;;;;;;6060432;23;19929;-83
2023/03/05 00:30:18;;;;;;;;;;;;;;;;;;6081775;23;19909;-83
2023/03/05 00:32:44;;;;;;;;;;;;;;;;;;6059187;23;19909;-82
2023/03/05 00:35:09;;;;;;;;;;;;;;;;;;6061234;23;19909;-82
2023/03/05 00:37:35;;;;;;;;;;;;;;;;;;6085875;23;19916;-83
2023/03/05 00:40:00;;;;;;;;;;;;;;;;;;6085855;23;19917;-82
2023/03/05 00:42:27;;;;;;;;;;;;;;;;;;6083662;23;19941;-82
2023/03/05 00:44:52;;;;;;;;;;;;;;;;;;6060912;23;19914;-83
2023/03/05 00:47:18;;;;;;;;;;;;;;;;;;6060468;23;19957;-82
2023/03/05 00:49:43;;;;;;;;;;;;;;;;;;6059913;23;19989;-82
2023/03/05 00:52:09;;;;;;;;;;;;;;;;;;6060819;23;19916;-83
2023/03/05 00:54:34;;;;;;;;;;;;;;;;;;6060886;23;19933;-82
2023/03/05 00:57:07;;;;;;;;;;;;;;;;;;6087631;23;20379;-82
2023/03/05 00:59:33;;;;;;;;;;;;;;;;;;6108030;23;19937;-81
2023/03/05 01:01:59;;;;;;;;;;;;;;;;;;6082404;23;19909;-82
2023/03/05 01:04:24;;;;;;;;;;;;;;;;;;6080926;23;20251;-82
2023/03/05 01:06:50;;;;;;;;;;;;;;;;;;6081708;23;19996;-82
2023/03/05 01:09:16;;;;;;;;;;;;;;;;;;6061144;23;19914;-82
2023/03/05 01:11:41;;;;;;;;;;;;;;;;;;6062492;23;19910;-83
2023/03/05 01:14:07;;;;;;;;;;;;;;;;;;6061595;23;20443;-82
2023/03/05 01:16:32;;;;;;;;;;;;;;;;;;6083599;23;20268;-83
2023/03/05 01:18:58;;;;;;;;;;;;;;;;;;6083571;23;19914;-82
2023/03/05 01:21:23;;;;;;;;;;;;;;;;;;6082773;23;19917;-82
2023/03/05 01:23:49;;;;;;;;;;;;;;;;;;6056648;23;19910;-82
2023/03/05 01:26:14;;;;;;;;;;;;;;;;;;6083644;23;19957;-82
2023/03/05 01:28:40;;;;;;;;;;;;;;;;;;6060480;23;20251;-83
2023/03/05 01:31:05;;;;;;;;;;;;;;;;;;6088672;23;19917;-83
2023/03/05 01:33:31;;;;;;;;;;;;;;;;;;6080704;23;19914;-82
2023/03/05 01:35:56;;;;;;;;;;;;;;;;;;6079820;23;20301;-82
2023/03/05 01:38:22;;;;;;;;;;;;;;;;;;6081876;23;19933;-83
2023/03/05 01:40:47;;;;;;;;;;;;;;;;;;6083642;23;20015;-82
2023/03/05 01:43:13;;;;;;;;;;;;;;;;;;6086657;23;19934;-82
2023/03/05 01:45:38;;;;;;;;;;;;;;;;;;6084557;23;19914;-83
2023/03/05 01:48:04;;;;;;;;;;;;;;;;;;6083224;23;19936;-83
2023/03/05 01:50:29;;;;;;;;;;;;;;;;;;6057286;23;19909;-83
2023/03/05 01:52:54;;;;;;;;;;;;;;;;;;6083088;23;19913;-82
2023/03/05 01:55:20;;;;;;;;;;;;;;;;;;6081641;23;19910;-81
2023/03/05 01:57:45;;;;;;;;;;;;;;;;;;6085353;23;19909;-82
2023/03/05 02:00:11;;;;;;;;;;;;;;;;;;6059166;23;19964;-82
2023/03/05 02:02:42;;;;;;;;;;;;;;;;;;6082509;23;19909;-82
2023/03/05 02:05:08;;;;;;;;;;;;;;;;;;6083539;23;19984;-83
2023/03/05 02:07:36;;;;;;;;;;;;;;;;;;6085330;23;19893;-83
2023/03/05 02:10:01;;;;;;;;;;;;;;;;;;6086438;23;19961;-81
2023/03/05 02:12:27;;;;;;;;;;;;;;;;;;6062410;23;19893;-82
2023/03/05 02:14:58;;;;;;;;;;;;;;;;;;6087927;23;19910;-82
2023/03/05 02:17:23;;;;;;;;;;;;;;;;;;6083100;23;19909;-82
2023/03/05 02:19:48;;;;;;;;;;;;;;;;;;6083592;23;19983;-82
2023/03/05 02:22:14;;;;;;;;;;;;;;;;;;6062564;23;19909;-82
2023/03/05 02:24:39;;;;;;;;;;;;;;;;;;6087349;23;19906;-82
2023/03/05 02:27:05;;;;;;;;;;;;;;;;;;6088188;23;19894;-81
2023/03/05 02:29:31;;;;;;;;;;;;;;;;;;6082378;23;19988;-82
2023/03/05 02:31:56;;;;;;;;;;;;;;;;;;6058004;23;19909;-82
2023/03/05 02:34:22;;;;;;;;;;;;;;;;;;6085337;23;19904;-82
2023/03/05 02:36:49;;;;;;;;;;;;;;;;;;6037766;23;19937;-82
2023/03/05 02:39:15;;;;;;;;;;;;;;;;;;6093432;23;19901;-81
2023/03/05 02:41:41;;;;;;;;;;;;;;;;;;6095325;23;19950;-81
2023/03/05 02:44:06;;;;;;;;;;;;;;;;;;6093804;23;19897;-82
2023/03/05 02:46:32;;;;;;;;;;;;;;;;;;6068224;23;19909;-82
2023/03/05 02:48:57;;;;;;;;;;;;;;;;;;6095244;23;19965;-81
2023/03/05 02:51:23;;;;;;;;;;;;;;;;;;6070460;23;19933;-82
2023/03/05 02:53:48;;;;;;;;;;;;;;;;;;6086038;23;19954;-82
2023/03/05 02:56:14;;;;;;;;;;;;;;;;;;6079305;23;19917;-83
2023/03/05 02:58:40;;;;;;;;;;;;;;;;;;6085637;23;19909;-82
2023/03/05 03:01:06;;;;;;;;;;;;;;;;;;6063359;23;19913;-82
2023/03/05 03:03:31;;;;;;;;;;;;;;;;;;6064699;23;19916;-82
2023/03/05 03:05:57;;;;;;;;;;;;;;;;;;6089666;23;19910;-82
2023/03/05 03:08:23;;;;;;;;;;;;;;;;;;6091030;23;19937;-82
2023/03/05 03:10:48;;;;;;;;;;;;;;;;;;6089885;23;19909;-83
2023/03/05 03:13:14;;;;;;;;;;;;;;;;;;6091362;23;19916;-82
2023/03/05 03:15:41;;;;;;;;;;;;;;;;;;6091149;23;19910;-83
2023/03/05 03:18:06;;;;;;;;;;;;;;;;;;6065925;23;20319;-84
2023/03/05 03:20:33;;;;;;;;;;;;;;;;;;6066206;23;19894;-83
2023/03/05 03:22:59;;;;;;;;;;;;;;;;;;6089744;23;19933;-83
2023/03/05 03:25:24;;;;;;;;;;;;;;;;;;6065489;23;19917;-81
2023/03/05 03:27:52;;;;;;;;;;;;;;;;;;6062677;23;19914;-82
2023/03/05 03:30:18;;;;;;;;;;;;;;;;;;6086854;23;19920;-83
2023/03/05 03:32:43;;;;;;;;;;;;;;;;;;6064080;23;20356;-83
2023/03/05 03:35:09;;;;;;;;;;;;;;;;;;6087009;23;19914;-82
2023/03/05 03:37:34;;;;;;;;;;;;;;;;;;6087568;23;19949;-83
2023/03/05 03:40:00;;;;;;;;;;;;;;;;;;6063336;23;19910;-83
2023/03/05 03:42:25;;;;;;;;;;;;;;;;;;6059345;23;19909;-83
2023/03/05 03:44:51;;;;;;;;;;;;;;;;;;6080025;23;19933;-83
2023/03/05 03:47:16;;;;;;;;;;;;;;;;;;6057180;23;20344;-82
2023/03/05 03:49:41;;;;;;;;;;;;;;;;;;6084705;23;19913;-83
2023/03/05 03:52:07;;;;;;;;;;;;;;;;;;6083831;23;19920;-83
2023/03/05 03:54:33;;;;;;;;;;;;;;;;;;6084594;23;19916;-82
2023/03/05 03:56:58;;;;;;;;;;;;;;;;;;6084894;23;19910;-83
2023/03/05 03:59:23;;;;;;;;;;;;;;;;;;6066176;23;19902;-82
2023/03/05 04:01:49;;;;;;;;;;;;;;;;;;6095840;23;19924;-82
2023/03/05 04:04:14;;;;;;;;;;;;;;;;;;6095220;23;19898;-82
2023/03/05 04:06:40;;;;;;;;;;;;;;;;;;6096457;23;19946;-82
2023/03/05 04:09:06;;;;;;;;;;;;;;;;;;6095764;23;19929;-82
2023/03/05 04:11:32;;;;;;;;;;;;;;;;;;6070643;23;19902;-82
2023/03/05 04:13:57;;;;;;;;;;;;;;;;;;6090722;23;19920;-82
2023/03/05 04:16:23;;;;;;;;;;;;;;;;;;6062638;23;19901;-83
2023/03/05 04:18:48;;;;;;;;;;;;;;;;;;6092805;23;19965;-82
2023/03/05 04:21:13;;;;;;;;;;;;;;;;;;6092803;23;19910;-82
2023/03/05 04:23:39;;;;;;;;;;;;;;;;;;6090516;23;19909;-83
2023/03/05 04:26:04;;;;;;;;;;;;;;;;;;6064699;23;19917;-82
2023/03/05 04:28:30;;;;;;;;;;;;;;;;;;6064270;23;19933;-83
2023/03/05 04:30:55;;;;;;;;;;;;;;;;;;6091619;23;20236;-82
2023/03/05 04:33:21;;;;;;;;;;;;;;;;;;6066297;23;19917;-82
2023/03/05 04:35:46;;;;;;;;;;;;;;;;;;6093398;23;19909;-82
2023/03/05 04:38:12;;;;;;;;;;;;;;;;;;6093445;23;19925;-82
2023/03/05 04:40:37;;;;;;;;;;;;;;;;;;6070007;23;19937;-83
2023/03/05 04:43:03;;;;;;;;;;;;;;;;;;6094865;23;19900;-83
2023/03/05 04:45:28;;;;;;;;;;;;;;;;;;6090952;23;19933;-82
2023/03/05 04:47:53;;;;;;;;;;;;;;;;;;6065366;23;19898;-82
2023/03/05 04:50:19;;;;;;;;;;;;;;;;;;6086975;23;19920;-82
2023/03/05 04:52:44;;;;;;;;;;;;;;;;;;6060068;23;19914;-82
2023/03/05 04:55:10;;;;;;;;;;;;;;;;;;6083053;23;19988;-82
2023/03/05 04:57:35;;;;;;;;;;;;;;;;;;6082920;23;19909;-82
2023/03/05 05:00:01;;;;;;;;;;;;;;;;;;6082334;23;19913;-82
2023/03/05 05:02:27;;;;;;;;;;;;;;;;;;6061672;23;19913;-82
2023/03/05 05:04:52;;;;;;;;;;;;;;;;;;6066727;23;20325;-82
2023/03/05 05:07:18;;;;;;;;;;;;;;;;;;6091098;23;19920;-82
2023/03/05 05:09:43;;;;;;;;;;;;;;;;;;6067720;23;19941;-83
2023/03/05 05:12:09;;;;;;;;;;;;;;;;;;6045101;23;19913;-83
2023/03/05 05:14:34;;;;;;;;;;;;;;;;;;6092932;23;19958;-83
2023/03/05 05:17:03;;;;;;;;;;;;;;;;;;6092358;23;19917;-82
2023/03/05 05:19:29;;;;;;;;;;;;;;;;;;6067241;23;19950;-83
2023/03/05 05:21:54;;;;;;;;;;;;;;;;;;6088514;23;19933;-83
2023/03/05 05:24:20;;;;;;;;;;;;;;;;;;6064502;23;19916;-82
2023/03/05 05:26:45;;;;;;;;;;;;;;;;;;6091521;23;19910;-83
2023/03/05 05:29:11;;;;;;;;;;;;;;;;;;6065390;23;19914;-82
2023/03/05 05:31:36;;;;;;;;;;;;;;;;;;6090645;23;19934;-83
2023/03/05 05:34:02;;;;;;;;;;;;;;;;;;6064984;23;19910;-83
2023/03/05 05:36:27;;;;;;;;;;;;;;;;;;6089851;23;19910;-83
2023/03/05 05:38:53;;;;;;;;;;;;;;;;;;6089176;23;19929;-82
2023/03/05 05:41:18;;;;;;;;;;;;;;;;;;6088716;23;19910;-83
2023/03/05 05:43:44;;;;;;;;;;;;;;;;;;6087818;23;19910;-83
2023/03/05 05:46:09;;;;;;;;;;;;;;;;;;6087426;23;19916;-83
2023/03/05 05:48:35;;;;;;;;;;;;;;;;;;6061774;23;19913;-82
2023/03/05 05:51:00;;;;;;;;;;;;;;;;;;6056808;23;20279;-82
2023/03/05 05:53:26;;;;;;;;;;;;;;;;;;6085577;23;19966;-82
2023/03/05 05:55:51;;;;;;;;;;;;;;;;;;6060400;23;20396;-83
2023/03/05 05:58:17;;;;;;;;;;;;;;;;;;6087211;23;19905;-83
2023/03/05 06:00:42;;;;;;;;;;;;;;;;;;6121453;23;19999;-84
2023/03/05 06:05:50;;;;;;;;;;;;;;;;;;6199891;23;19904;-85
2023/03/05 06:08:19;;;;;;;;;;;;;;;;;;6214059;23;19923;-84
2023/03/05 06:10:48;;;;;;;;;;;;;;;;;;6190093;23;19898;-84
2023/03/05 06:15:58;;;;;;;;;;;;;;;;;;6150339;23;19904;-83
2023/03/05 06:18:23;;;;;;;;;;;;;;;;;;6175392;23;19905;-83
2023/03/05 06:26:13;;;;;;;;;;;;;;;;;;6154461;23;19921;-83
2023/03/05 06:28:38;;;;;;;;;;;;;;;;;;6117328;23;19905;-82
2023/03/05 06:31:04;;;;;;;;;;;;;;;;;;6155429;23;19897;-80
2023/03/05 06:33:29;;;;;;;;;;;;;;;;;;6129722;23;19909;-80
2023/03/05 06:35:58;;;;;;;;;;;;;;;;;;6152725;23;19932;-80
2023/03/05 06:38:23;;;;;;;;;;;;;;;;;;6154337;23;19940;-81
2023/03/05 06:40:52;;;;;;;;;;;;;;;;;;6154285;23;19939;-80
2023/03/05 07:07:42;;;;;;;;;;;;;;;;;;6108236;23;19905;-83
2023/03/05 07:10:07;;;;;;;;;;;;;;;;;;6055036;23;20006;-78
2023/03/05 07:31:29;;;;;;;;;;;;;;;;;;6099180;23;19925;-80
2023/03/05 07:36:37;;;;;;;;;;;;;;;;;;6110122;23;19952;-77
2023/03/05 07:39:05;;;;;;;;;;;;;;;;;;6087829;23;19924;-79
2023/03/05 07:44:12;;;;;;;;;;;;;;;;;;6136077;23;19905;-83
2023/03/05 07:49:20;;;;;;;;;;;;;;;;;;6167478;23;19905;-84
2023/03/05 08:13:14;;;;;;;;;;;;;;;;;;6166854;23;19905;-84
2023/03/05 08:32:21;;;;;;;;;;;;;;;;;;6139498;23;20893;-81
2023/03/05 08:40:22;;;;;;;;;;;;;;;;;;6129322;23;19930;-81
2023/03/05 08:42:50;;;;;;;;;;;;;;;;;;6183188;23;19970;-82
2023/03/05 08:48:10;;;;;;;;;;;;;;;;;;6177220;23;19936;-81
2023/03/05 08:50:43;;;;;;;;;;;;;;;;;;6151915;23;19937;-81
2023/03/05 08:53:12;;;;;;;;;;;;;;;;;;6149239;23;19916;-80
2023/03/05 08:55:37;;;;;;;;;;;;;;;;;;6149252;23;19953;-81
2023/03/05 08:58:06;;;;;;;;;;;;;;;;;;6149636;23;19913;-82
2023/03/05 09:00:32;;;;;;;;;;;;;;;;;;6147665;23;19909;-81
2023/03/05 09:02:57;;;;;;;;;;;;;;;;;;6150080;23;19900;-82
2023/03/05 09:05:23;;;;;;;;;;;;;;;;;;6122171;23;19946;-82
2023/03/05 09:07:49;;;;;;;;;;;;;;;;;;6150808;23;19928;-82
2023/03/05 09:10:14;;;;;;;;;;;;;;;;;;6153350;23;19895;-82
2023/03/05 09:12:40;;;;;;;;;;;;;;;;;;6153918;23;19960;-80
2023/03/05 09:15:07;;;;;;;;;;;;;;;;;;6155243;23;19917;-83
2023/03/05 09:20:57;;;;;;;;;;;;;;;;;;6113926;23;19936;-80
2023/03/05 09:23:22;;;;;;;;;;;;;;;;;;6184578;23;20038;-80
2023/03/05 09:25:48;;;;;;;;;;;;;;;;;;6215686;23;19897;-82
2023/03/05 09:28:16;;;;;;;;;;;;;;;;;;6215109;23;19905;-83
2023/03/05 09:33:23;;;;;;;;;;;;;;;;;;6193383;23;19916;-82
2023/03/05 09:35:48;;;;;;;;;;;;;;;;;;6200207;23;19904;-81
2023/03/05 09:38:14;;;;;;;;;;;;;;;;;;6189352;23;20151;-79
2023/03/05 09:40:40;;;;;;;;;;;;;;;;;;6189470;23;19918;-82
2023/03/05 09:43:05;;;;;;;;;;;;;;;;;;6214386;23;19935;-82
2023/03/05 09:45:33;;;;;;;;;;;;;;;;;;6215898;23;19926;-84
2023/03/05 09:47:58;;;;;;;;;;;;;;;;;;6215950;23;19908;-82
2023/03/05 09:53:06;;;;;;;;;;;;;;;;;;6183825;23;19904;-83
2023/03/05 09:55:31;;;;;;;;;;;;;;;;;;6188170;23;19897;-81
2023/03/05 09:57:57;;;;;;;;;;;;;;;;;;6212113;23;19927;-84
2023/03/05 10:00:23;;;;;;;;;;;;;;;;;;6214123;23;19904;-83
2023/03/05 10:02:48;;;;;;;;;;;;;;;;;;6215491;23;19902;-83
2023/03/05 10:05:14;;;;;;;;;;;;;;;;;;6215140;23;19896;-84
2023/03/05 10:07:39;;;;;;;;;;;;;;;;;;6165157;23;19896;-85
2023/03/05 10:10:07;;;;;;;;;;;;;;;;;;6143973;23;19905;-83
2023/03/05 10:12:33;;;;;;;;;;;;;;;;;;6155803;23;19913;-84
2023/03/05 10:15:01;;;;;;;;;;;;;;;;;;6163506;23;19904;-82
2023/03/05 10:17:27;;;;;;;;;;;;;;;;;;6160494;23;19924;-84
2023/03/05 10:19:55;;;;;;;;;;;;;;;;;;6105812;23;19921;-84
2023/03/05 10:22:21;;;;;;;;;;;;;;;;;;6136062;23;19921;-81
2023/03/05 10:24:48;;;;;;;;;;;;;;;;;;6160413;23;19909;-84
2023/03/05 10:27:16;;;;;;;;;;;;;;;;;;6159849;23;19896;-83
2023/03/05 10:29:42;;;;;;;;;;;;;;;;;;6185530;23;19904;-84
2023/03/05 10:32:09;;;;;;;;;;;;;;;;;;6150212;23;19928;-83
2023/03/05 10:34:35;;;;;;;;;;;;;;;;;;6190135;23;19923;-84
2023/03/05 10:37:04;;;;;;;;;;;;;;;;;;6214966;23;19932;-82
2023/03/05 10:42:01;;;;;;;;;;;;;;;;;;6155939;23;19905;-83
2023/03/05 10:47:07;;;;;;;;;;;;;;;;;;6186874;23;19921;-84
2023/03/05 10:49:33;;;;;;;;;;;;;;;;;;6214371;23;19944;-84
2023/03/05 10:51:58;;;;;;;;;;;;;;;;;;6153731;23;19924;-79
2023/03/05 10:57:08;;;;;;;;;;;;;;;;;;6150722;23;19904;-82
2023/03/05 10:59:34;;;;;;;;;;;;;;;;;;6138478;23;19905;-84
2023/03/05 11:02:00;;;;;;;;;;;;;;;;;;6135805;23;19929;-83
2023/03/05 11:04:26;;;;;;;;;;;;;;;;;;6209599;23;19928;-83
2023/03/05 11:06:54;;;;;;;;;;;;;;;;;;6185085;23;19892;-83
2023/03/05 11:09:20;;;;;;;;;;;;;;;;;;6184217;23;19976;-82
2023/03/05 11:11:45;;;;;;;;;;;;;;;;;;6184748;23;19916;-82
2023/03/05 11:14:11;;;;;;;;;;;;;;;;;;6185508;23;19896;-83
2023/03/05 11:16:37;;;;;;;;;;;;;;;;;;6184397;23;19897;-82
2023/03/05 11:19:03;;;;;;;;;;;;;;;;;;6159408;23;19939;-81
2023/03/05 11:21:29;;;;;;;;;;;;;;;;;;6158918;23;19897;-82
2023/03/05 11:23:55;;;;;;;;;;;;;;;;;;6182993;23;19913;-82
2023/03/05 11:26:23;;;;;;;;;;;;;;;;;;6183037;23;19916;-83
2023/03/05 11:28:55;;;;;;;;;;;;;;;;;;6181363;23;19912;-84
2023/03/05 11:31:22;;;;;;;;;;;;;;;;;;6156658;23;19916;-83
2023/03/05 11:33:47;;;;;;;;;;;;;;;;;;6181408;23;19928;-83
2023/03/05 11:36:13;;;;;;;;;;;;;;;;;;6182914;23;19940;-84
2023/03/05 11:38:39;;;;;;;;;;;;;;;;;;6181505;23;19920;-85
2023/03/05 11:41:07;;;;;;;;;;;;;;;;;;6181178;23;19920;-86
2023/03/05 11:43:36;;;;;;;;;;;;;;;;;;6181985;23;19916;-85
2023/03/05 11:46:04;;;;;;;;;;;;;;;;;;6132521;23;19953;-84
2023/03/05 11:51:12;;;;;;;;;;;;;;;;;;6176763;23;19904;-84
2023/03/05 11:53:37;;;;;;;;;;;;;;;;;;6212457;23;19956;-84
2023/03/05 11:56:14;;;;;;;;;;;;;;;;;;6188316;23;19903;-84
2023/03/05 11:58:52;;;;;;;;;;;;;;;;;;6209854;23;19913;-84
2023/03/05 12:01:27;;;;;;;;;;;;;;;;;;6130541;23;20343;-79
2023/03/05 12:03:55;;;;;;;;;;;;;;;;;;6124743;23;19934;-81
2023/03/05 12:06:23;;;;;;;;;;;;;;;;;;6126291;23;19980;-80
2023/03/05 12:08:58;;;;;;;;;;;;;;;;;;6127180;23;20324;-80
2023/03/05 12:11:25;;;;;;;;;;;;;;;;;;6124628;23;19909;-81
2023/03/05 12:13:59;;;;;;;;;;;;;;;;;;6125027;23;19915;-78
2023/03/05 12:20:09;;;;;;;;;;;;;;;;;;6118114;23;19980;-80
2023/03/05 12:22:35;;;;;;;;;;;;;;;;;;6124974;23;20231;-80
2023/03/05 12:25:00;;;;;;;;;;;;;;;;;;6100654;23;20382;-80
2023/03/05 12:27:32;;;;;;;;;;;;;;;;;;6126578;23;19916;-82
2023/03/05 12:30:00;;;;;;;;;;;;;;;;;;6100383;23;20014;-82
2023/03/05 12:32:32;;;;;;;;;;;;;;;;;;6124963;23;19909;-80
2023/03/05 12:35:19;;;;;;;;;;;;;;;;;;6124076;23;19916;-83
2023/03/05 12:37:47;;;;;;;;;;;;;;;;;;6125596;23;20339;-83
2023/03/05 12:41:13;;;;;;;;;;;;;;;;;;6124443;23;19916;-79
2023/03/05 12:43:38;;;;;;;;;;;;;;;;;;6124397;23;19913;-80
2023/03/05 12:46:04;;;;;;;;;;;;;;;;;;6123488;23;20290;-82
2023/03/05 12:48:29;;;;;;;;;;;;;;;;;;6147721;23;19920;-81
2023/03/05 12:50:55;;;;;;;;;;;;;;;;;;6124808;23;19909;-78
2023/03/05 12:53:20;;;;;;;;;;;;;;;;;;6102412;23;19909;-82
2023/03/05 12:55:52;;;;;;;;;;;;;;;;;;6103394;23;19913;-81
2023/03/05 12:58:23;;;;;;;;;;;;;;;;;;6128942;23;20409;-80
2023/03/05 13:01:03;;;;;;;;;;;;;;;;;;6104420;23;20284;-79
2023/03/05 13:03:42;;;;;;;;;;;;;;;;;;6107264;23;19936;-80
2023/03/05 13:06:44;;;;;;;;;;;;;;;;;;6132171;23;19917;-80
2023/03/05 13:09:11;;;;;;;;;;;;;;;;;;6129680;23;20339;-78
2023/03/05 13:15:24;;;;;;;;;;;;;;;;;;5965478;24;19910;-85
2023/03/05 13:18:17;;;;;;;;;;;;;;;;;;6000165;23;19953;-80
2023/03/05 13:27:35;;;;;;;;;;;;;;;;;;6063285;23;19928;-81
2023/03/05 13:30:03;;;;;;;;;;;;;;;;;;6071886;23;19917;-80
2023/03/05 13:32:29;;;;;;;;;;;;;;;;;;6071981;23;19964;-83
2023/03/05 13:35:20;;;;;;;;;;;;;;;;;;6076492;23;20289;-81
2023/03/05 13:37:54;;;;;;;;;;;;;;;;;;6071042;23;19994;-83
2023/03/05 13:44:03;;;;;;;;;;;;;;;;;;5949330;24;19911;-80
2023/03/05 13:50:15;;;;;;;;;;;;;;;;;;5886187;24;20007;-81
2023/03/05 13:58:54;;;;;;;;;;;;;;;;;;6036996;23;19946;-80
2023/03/05 14:01:23;;;;;;;;;;;;;;;;;;6036193;23;19992;-79
2023/03/05 14:03:48;;;;;;;;;;;;;;;;;;6036902;23;20207;-81
2023/03/05 14:09:02;;;;;;;;;;;;;;;;;;6032967;23;19952;-83
2023/03/05 14:11:27;;;;;;;;;;;;;;;;;;6036590;23;20252;-80
2023/03/05 14:13:56;;;;;;;;;;;;;;;;;;6037073;23;20000;-82
2023/03/05 14:16:21;;;;;;;;;;;;;;;;;;6036909;23;20138;-83
2023/03/05 14:18:47;;;;;;;;;;;;;;;;;;6013090;23;20337;-81
2023/03/05 14:21:13;;;;;;;;;;;;;;;;;;6082838;23;20295;-82
2023/03/05 14:23:38;;;;;;;;;;;;;;;;;;6124558;23;19940;-79
2023/03/05 14:26:04;;;;;;;;;;;;;;;;;;6125881;23;20259;-80
2023/03/05 14:28:29;;;;;;;;;;;;;;;;;;6100275;23;20331;-82
2023/03/05 14:30:54;;;;;;;;;;;;;;;;;;6126281;23;20169;-81
2023/03/05 14:33:22;;;;;;;;;;;;;;;;;;6148958;23;19960;-82
2023/03/05 14:35:51;;;;;;;;;;;;;;;;;;6124540;23;19966;-80
2023/03/05 14:38:16;;;;;;;;;;;;;;;;;;6076211;23;19916;-79
2023/03/05 14:40:42;;;;;;;;;;;;;;;;;;6099815;23;19909;-78
2023/03/05 14:43:10;;;;;;;;;;;;;;;;;;6124455;23;19952;-80
2023/03/05 14:45:36;;;;;;;;;;;;;;;;;;6123742;23;19909;-79
2023/03/05 14:48:04;;;;;;;;;;;;;;;;;;6124281;23;19936;-79
2023/03/05 14:50:30;;;;;;;;;;;;;;;;;;6124147;23;19940;-79
2023/03/05 14:52:58;;;;;;;;;;;;;;;;;;6099772;23;20303;-83
2023/03/05 14:55:24;;;;;;;;;;;;;;;;;;6124066;23;19968;-80
2023/03/05 14:57:50;;;;;;;;;;;;;;;;;;6149155;23;19989;-78
2023/03/05 15:00:15;;;;;;;;;;;;;;;;;;6124057;23;20284;-78
2023/03/05 15:02:44;;;;;;;;;;;;;;;;;;6124288;23;19967;-80
2023/03/05 15:05:09;;;;;;;;;;;;;;;;;;6124047;23;19909;-81
2023/03/05 15:07:34;;;;;;;;;;;;;;;;;;6125631;23;19936;-79
2023/03/05 15:10:00;;;;;;;;;;;;;;;;;;6148358;23;19995;-79
2023/03/05 15:12:26;;;;;;;;;;;;;;;;;;6099638;23;19909;-79
2023/03/05 15:14:51;;;;;;;;;;;;;;;;;;6125498;23;20224;-80
2023/03/05 15:17:16;;;;;;;;;;;;;;;;;;6148363;23;20357;-79
2023/03/05 15:19:42;;;;;;;;;;;;;;;;;;6125506;23;19916;-79
2023/03/05 15:22:07;;;;;;;;;;;;;;;;;;6099645;23;20386;-78
2023/03/05 15:24:33;;;;;;;;;;;;;;;;;;6125613;23;19976;-80
2023/03/05 15:26:58;;;;;;;;;;;;;;;;;;6123974;23;20331;-80
2023/03/05 15:29:25;;;;;;;;;;;;;;;;;;6125400;23;19924;-80
2023/03/05 15:31:50;;;;;;;;;;;;;;;;;;6124115;23;19941;-79
2023/03/05 15:34:15;;;;;;;;;;;;;;;;;;6123947;23;20350;-80
2023/03/05 15:36:44;;;;;;;;;;;;;;;;;;6123717;23;19909;-80
2023/03/05 15:39:09;;;;;;;;;;;;;;;;;;6123828;23;20353;-80
2023/03/05 15:41:35;;;;;;;;;;;;;;;;;;6125598;23;19909;-77
2023/03/05 15:44:00;;;;;;;;;;;;;;;;;;6148426;23;19909;-81
2023/03/05 15:46:26;;;;;;;;;;;;;;;;;;6123509;23;20394;-78
2023/03/05 15:48:57;;;;;;;;;;;;;;;;;;6124164;23;20327;-78
2023/03/05 15:51:31;;;;;;;;;;;;;;;;;;6123887;23;19909;-80
2023/03/05 15:54:00;;;;;;;;;;;;;;;;;;6100819;23;19909;-82
2023/03/05 15:56:35;;;;;;;;;;;;;;;;;;6099971;23;19964;-79
2023/03/05 15:59:00;;;;;;;;;;;;;;;;;;6075591;23;19920;-80
2023/03/05 16:01:35;;;;;;;;;;;;;;;;;;6124022;23;19913;-80
2023/03/05 16:04:01;;;;;;;;;;;;;;;;;;6148879;23;19988;-78
2023/03/05 16:06:26;;;;;;;;;;;;;;;;;;6099324;23;19909;-84
2023/03/05 16:08:52;;;;;;;;;;;;;;;;;;6124306;23;20247;-83
2023/03/05 16:11:17;;;;;;;;;;;;;;;;;;6099735;23;19940;-82
2023/03/05 16:13:43;;;;;;;;;;;;;;;;;;6125759;23;20367;-80
2023/03/05 16:16:08;;;;;;;;;;;;;;;;;;6124912;23;19916;-79
2023/03/05 16:18:34;;;;;;;;;;;;;;;;;;6125861;23;19913;-83
2023/03/05 16:20:59;;;;;;;;;;;;;;;;;;6126520;23;19909;-79
2023/03/05 16:23:25;;;;;;;;;;;;;;;;;;6100151;23;19908;-80
2023/03/05 16:25:50;;;;;;;;;;;;;;;;;;6125730;23;19909;-80
2023/03/05 16:28:15;;;;;;;;;;;;;;;;;;6125141;23;20270;-80
2023/03/05 16:30:41;;;;;;;;;;;;;;;;;;6148406;23;19999;-80
2023/03/05 16:33:06;;;;;;;;;;;;;;;;;;6125565;23;20247;-81
2023/03/05 16:35:32;;;;;;;;;;;;;;;;;;6125054;23;19909;-78
2023/03/05 16:37:57;;;;;;;;;;;;;;;;;;6099065;23;20302;-79
2023/03/05 16:40:23;;;;;;;;;;;;;;;;;;6124956;23;19913;-80
2023/03/05 16:42:48;;;;;;;;;;;;;;;;;;6125077;23;19909;-80
2023/03/05 16:45:14;;;;;;;;;;;;;;;;;;6123282;23;19913;-78
2023/03/05 16:47:39;;;;;;;;;;;;;;;;;;6099125;23;19915;-79
2023/03/05 16:50:05;;;;;;;;;;;;;;;;;;6124965;23;19983;-80
2023/03/05 16:52:30;;;;;;;;;;;;;;;;;;6125411;23;20309;-80
2023/03/05 16:54:56;;;;;;;;;;;;;;;;;;6147439;23;19915;-80
2023/03/05 16:57:24;;;;;;;;;;;;;;;;;;6123393;23;20259;-80
2023/03/05 16:59:50;;;;;;;;;;;;;;;;;;6123378;23;19916;-80
2023/03/05 17:02:15;;;;;;;;;;;;;;;;;;6124986;23;19980;-82
2023/03/05 17:04:41;;;;;;;;;;;;;;;;;;6147651;23;19943;-79
2023/03/05 17:07:06;;;;;;;;;;;;;;;;;;6124965;23;19908;-81
2023/03/05 17:09:31;;;;;;;;;;;;;;;;;;6124630;23;20256;-79
2023/03/05 17:11:57;;;;;;;;;;;;;;;;;;6123412;23;20327;-80
2023/03/05 17:14:22;;;;;;;;;;;;;;;;;;6124768;23;19909;-80
2023/03/05 17:16:48;;;;;;;;;;;;;;;;;;6124765;23;19909;-78
2023/03/05 17:19:13;;;;;;;;;;;;;;;;;;6123455;23;19909;-79
2023/03/05 17:21:41;;;;;;;;;;;;;;;;;;6147859;23;20327;-79
2023/03/05 17:24:07;;;;;;;;;;;;;;;;;;6147769;23;20002;-80
2023/03/05 17:26:34;;;;;;;;;;;;;;;;;;6123160;23;20350;-79
2023/03/05 17:29:00;;;;;;;;;;;;;;;;;;6147893;23;19959;-79
2023/03/05 17:31:25;;;;;;;;;;;;;;;;;;6098785;23;19909;-84
2023/03/05 17:33:50;;;;;;;;;;;;;;;;;;6123314;23;19932;-79
2023/03/05 17:36:16;;;;;;;;;;;;;;;;;;6123218;23;19916;-78
2023/03/05 17:38:41;;;;;;;;;;;;;;;;;;6149324;23;19916;-83
2023/03/05 17:41:07;;;;;;;;;;;;;;;;;;6149709;23;20343;-82
2023/03/05 17:43:44;;;;;;;;;;;;;;;;;;6102983;23;20255;-80
2023/03/05 17:46:09;;;;;;;;;;;;;;;;;;6126276;23;19909;-79
2023/03/05 17:48:38;;;;;;;;;;;;;;;;;;6126488;23;19913;-79
2023/03/05 17:51:06;;;;;;;;;;;;;;;;;;6126244;23;20002;-81
2023/03/05 17:53:32;;;;;;;;;;;;;;;;;;6126427;23;19924;-81
2023/03/05 17:55:57;;;;;;;;;;;;;;;;;;6100099;23;20148;-83
2023/03/05 17:58:23;;;;;;;;;;;;;;;;;;6126689;23;19980;-83
2023/03/05 18:00:48;;;;;;;;;;;;;;;;;;6121430;23;19908;-84
2023/03/05 18:03:14;;;;;;;;;;;;;;;;;;6179877;23;19909;-85
2023/03/05 18:05:41;;;;;;;;;;;;;;;;;;6134894;23;19921;-84
2023/03/05 18:08:20;;;;;;;;;;;;;;;;;;6158220;23;19935;-84
2023/03/05 18:22:27;;;;;;;;;;;;;;;;;;6177941;23;19905;-84
2023/03/05 18:25:09;;;;;;;;;;;;;;;;;;6173943;23;19904;-83
2023/03/05 18:30:26;;;;;;;;;;;;;;;;;;6154511;23;19913;-84
2023/03/05 18:32:54;;;;;;;;;;;;;;;;;;6159139;23;19896;-84
2023/03/05 18:35:31;;;;;;;;;;;;;;;;;;6092134;23;19925;-81
2023/03/05 18:40:49;;;;;;;;;;;;;;;;;;6101505;23;19905;-83
2023/03/05 18:43:18;;;;;;;;;;;;;;;;;;6077449;23;19898;-84
2023/03/05 18:46:34;;;;;;;;;;;;;;;;;;6086029;23;19917;-84
2023/03/05 18:49:26;;;;;;;;;;;;;;;;;;6106059;23;19965;-84
2023/03/05 18:52:01;;;;;;;;;;;;;;;;;;6079318;23;19897;-83
2023/03/05 18:54:27;;;;;;;;;;;;;;;;;;6143472;23;19913;-84
2023/03/05 18:57:04;;;;;;;;;;;;;;;;;;6146611;23;19937;-83
2023/03/05 19:03:05;;;;;;;;;;;;;;;;;;5979929;24;19924;-84
2023/03/05 19:06:08;;;;;;;;;;;;;;;;;;6082058;23;19944;-83
2023/03/05 19:13:49;;;;;;;;;;;;;;;;;;6185970;23;20326;-81
2023/03/05 19:16:15;;;;;;;;;;;;;;;;;;6187035;23;19908;-81
2023/03/05 19:18:55;;;;;;;;;;;;;;;;;;6159984;23;19908;-81
2023/03/05 19:21:59;;;;;;;;;;;;;;;;;;6157777;23;19916;-80
2023/03/05 19:24:33;;;;;;;;;;;;;;;;;;6155563;23;19908;-82
2023/03/05 19:27:19;;;;;;;;;;;;;;;;;;;;;
2023/03/05 19:29:52;;;;;;;;;;;;;;;;;;6134339;23;20342;-81
2023/03/05 19:32:27;;;;;;;;;;;;;;;;;;;;;
2023/03/05 19:35:38;;;;;;;;;;;;;;;;;;6158964;23;19909;-81
2023/03/05 19:38:12;;;;;;;;;;;;;;;;;;6111039;23;19915;-80
2023/03/05 19:40:38;;;;;;;;;;;;;;;;;;6131621;23;19995;-81
2023/03/05 19:43:04;;;;;;;;;;;;;;;;;;6158571;23;19919;-80
2023/03/05 19:45:29;;;;;;;;;;;;;;;;;;6159324;23;19979;-80
2023/03/05 19:47:55;;;;;;;;;;;;;;;;;;6154794;23;19908;-79
2023/03/05 19:50:21;;;;;;;;;;;;;;;;;;6155879;23;19919;-81
2023/03/05 19:52:46;;;;;;;;;;;;;;;;;;6138220;23;19936;-81